sensor_id;sensor_type;location;lat;lon;timestamp;pressure;altitude;pressure_sealevel;temperature;humidity
56198;BME280;42700;42.524;12.052;2023-04-30T00:01:26;104651.09;;;17.44;100.00
56198;BME280;42700;42.524;12.052;2023-04-30T00:03:52;104677.00;;;17.47;100.00
56198;BME280;42700;42.524;12.052;2023-04-30T00:06:17;104735.19;;;17.49;100.00
56198;BME280;42700;42.524;12.052;2023-04-30T00:08:43;104771.84;;;17.52;100.00
56198;BME280;42700;42.524;12.052;2023-04-30T00:11:08;104799.50;;;17.56;100.00
56198;BME280;42700;42.524;12.052;2023-04-30T00:13:34;104790.53;;;17.57;100.00
56198;BME280;42700;42.524;12.052;2023-04-30T00:16:00;104803.06;;;17.58;100.00
56198;BME280;42700;42.524;12.052;2023-04-30T00:18:25;104711.63;;;17.58;100.00
56198;BME280;42700;42.524;12.052;2023-04-30T00:20:51;104489.53;;;17.50;100.00
56198;BME280;42700;42.524;12.052;2023-04-30T00:23:17;104401.78;;;17.49;100.00
56198;BME280;42700;42.524;12.052;2023-04-30T00:25:43;104424.16;;;17.50;100.00
56198;BME280;42700;42.524;12.052;2023-04-30T00:28:08;104390.13;;;17.49;100.00
56198;BME280;42700;42.524;12.052;2023-04-30T00:30:34;104317.56;;;17.47;100.00
56198;BME280;42700;42.524;12.052;2023-04-30T00:32:59;104369.50;;;17.49;100.00
56198;BME280;42700;42.524;12.052;2023-04-30T00:35:25;104410.66;;;17.51;100.00
56198;BME280;42700;42.524;12.052;2023-04-30T00:37:50;104389.13;;;17.51;100.00
56198;BME280;42700;42.524;12.052;2023-04-30T00:40:16;104387.31;;;17.52;100.00
56198;BME280;42700;42.524;12.052;2023-04-30T00:42:42;104334.50;;;17.51;100.00
56198;BME280;42700;42.524;12.052;2023-04-30T00:45:07;103997.09;;;17.39;100.00
56198;BME280;42700;42.524;12.052;2023-04-30T00:47:33;103735.84;;;17.31;100.00
56198;BME280;42700;42.524;12.052;2023-04-30T00:49:58;103879.00;;;17.36;100.00
56198;BME280;42700;42.524;12.052;2023-04-30T00:52:24;103997.09;;;17.39;100.00
56198;BME280;42700;42.524;12.052;2023-04-30T00:54:50;104022.13;;;17.41;100.00
56198;BME280;42700;42.524;12.052;2023-04-30T00:57:18;103957.75;;;17.38;100.00
56198;BME280;42700;42.524;12.052;2023-04-30T00:59:44;103827.09;;;17.34;100.00
56198;BME280;42700;42.524;12.052;2023-04-30T01:02:10;103755.63;;;17.30;100.00
56198;BME280;42700;42.524;12.052;2023-04-30T01:04:37;103587.41;;;17.26;100.00
56198;BME280;42700;42.524;12.052;2023-04-30T01:07:02;103482.75;;;17.23;100.00
56198;BME280;42700;42.524;12.052;2023-04-30T01:09:28;103277.16;;;17.15;100.00
56198;BME280;42700;42.524;12.052;2023-04-30T01:12:14;103347.78;;;17.18;100.00
56198;BME280;42700;42.524;12.052;2023-04-30T01:14:45;103345.09;;;17.18;100.00
56198;BME280;42700;42.524;12.052;2023-04-30T01:17:22;103262.94;;;17.13;100.00
56198;BME280;42700;42.524;12.052;2023-04-30T01:19:52;103192.31;;;17.11;100.00
56198;BME280;42700;42.524;12.052;2023-04-30T01:22:25;103117.25;;;17.08;100.00
56198;BME280;42700;42.524;12.052;2023-04-30T01:29:55;102912.81;;;16.99;100.00
56198;BME280;42700;42.524;12.052;2023-04-30T01:32:20;102894.09;;;16.97;100.00
56198;BME280;42700;42.524;12.052;2023-04-30T01:34:46;102811.97;;;16.93;100.00
56198;BME280;42700;42.524;12.052;2023-04-30T01:37:15;102735.25;;;16.89;100.00
56198;BME280;42700;42.524;12.052;2023-04-30T01:42:19;102699.59;;;16.87;100.00
56198;BME280;42700;42.524;12.052;2023-04-30T01:52:17;102661.47;;;16.80;100.00
56198;BME280;42700;42.524;12.052;2023-04-30T01:54:54;102495.31;;;16.75;100.00
56198;BME280;42700;42.524;12.052;2023-04-30T01:57:27;102491.88;;;16.73;100.00
56198;BME280;42700;42.524;12.052;2023-04-30T01:59:53;102464.25;;;16.71;100.00
56198;BME280;42700;42.524;12.052;2023-04-30T02:02:18;102484.03;;;16.70;100.00
56198;BME280;42700;42.524;12.052;2023-04-30T02:04:44;102484.97;;;16.69;100.00
56198;BME280;42700;42.524;12.052;2023-04-30T02:07:10;102444.91;;;16.66;100.00
56198;BME280;42700;42.524;12.052;2023-04-30T02:09:37;102386.06;;;16.63;100.00
56198;BME280;42700;42.524;12.052;2023-04-30T02:12:02;102397.78;;;16.62;100.00
56198;BME280;42700;42.524;12.052;2023-04-30T02:14:29;102375.56;;;16.60;100.00
56198;BME280;42700;42.524;12.052;2023-04-30T02:16:55;102418.50;;;16.60;100.00
56198;BME280;42700;42.524;12.052;2023-04-30T02:19:21;102239.22;;;16.52;100.00
56198;BME280;42700;42.524;12.052;2023-04-30T02:21:46;101915.56;;;16.38;100.00
56198;BME280;42700;42.524;12.052;2023-04-30T02:24:12;101826.50;;;16.33;100.00
56198;BME280;42700;42.524;12.052;2023-04-30T02:26:37;101769.44;;;16.31;100.00
56198;BME280;42700;42.524;12.052;2023-04-30T02:29:03;101751.66;;;16.30;100.00
56198;BME280;42700;42.524;12.052;2023-04-30T02:31:28;101760.66;;;16.29;100.00
56198;BME280;42700;42.524;12.052;2023-04-30T02:33:54;101801.84;;;16.28;100.00
56198;BME280;42700;42.524;12.052;2023-04-30T02:36:19;101880.38;;;16.30;100.00
56198;BME280;42700;42.524;12.052;2023-04-30T02:38:45;102020.59;;;16.32;100.00
56198;BME280;42700;42.524;12.052;2023-04-30T02:41:10;102044.75;;;16.32;100.00
56198;BME280;42700;42.524;12.052;2023-04-30T02:43:36;102025.22;;;16.30;100.00
56198;BME280;42700;42.524;12.052;2023-04-30T02:46:01;102078.88;;;16.30;100.00
56198;BME280;42700;42.524;12.052;2023-04-30T02:48:27;102101.38;;;16.28;100.00
56198;BME280;42700;42.524;12.052;2023-04-30T02:50:52;102270.16;;;16.31;100.00
56198;BME280;42700;42.524;12.052;2023-04-30T02:53:18;102246.13;;;16.29;100.00
56198;BME280;42700;42.524;12.052;2023-04-30T02:55:43;102070.50;;;16.22;100.00
56198;BME280;42700;42.524;12.052;2023-04-30T02:58:09;102299.03;;;16.27;100.00
56198;BME280;42700;42.524;12.052;2023-04-30T03:00:34;102374.13;;;16.27;100.00
56198;BME280;42700;42.524;12.052;2023-04-30T03:03:00;102450.19;;;16.26;100.00
56198;BME280;42700;42.524;12.052;2023-04-30T03:05:25;102517.25;;;16.26;100.00
56198;BME280;42700;42.524;12.052;2023-04-30T03:07:51;102537.94;;;16.24;100.00
56198;BME280;42700;42.524;12.052;2023-04-30T03:10:16;102764.81;;;16.28;100.00
56198;BME280;42700;42.524;12.052;2023-04-30T03:12:44;102808.69;;;16.27;100.00
56198;BME280;42700;42.524;12.052;2023-04-30T03:15:10;102671.31;;;16.22;100.00
56198;BME280;42700;42.524;12.052;2023-04-30T03:17:35;102899.91;;;16.27;100.00
56198;BME280;42700;42.524;12.052;2023-04-30T03:20:01;102891.94;;;16.26;100.00
56198;BME280;42700;42.524;12.052;2023-04-30T03:22:26;102988.44;;;16.27;100.00
56198;BME280;42700;42.524;12.052;2023-04-30T03:24:52;103166.13;;;16.32;100.00
56198;BME280;42700;42.524;12.052;2023-04-30T03:27:18;103218.91;;;16.32;100.00
56198;BME280;42700;42.524;12.052;2023-04-30T03:29:43;103030.56;;;16.25;100.00
56198;BME280;42700;42.524;12.052;2023-04-30T03:32:09;103349.44;;;16.33;100.00
56198;BME280;42700;42.524;12.052;2023-04-30T03:34:34;103375.41;;;16.32;100.00
56198;BME280;42700;42.524;12.052;2023-04-30T03:37:00;103519.28;;;16.35;100.00
56198;BME280;42700;42.524;12.052;2023-04-30T03:39:28;103498.84;;;16.32;100.00
56198;BME280;42700;42.524;12.052;2023-04-30T03:41:54;103580.06;;;16.36;100.00
56198;BME280;42700;42.524;12.052;2023-04-30T03:44:19;103607.75;;;16.36;100.00
56198;BME280;42700;42.524;12.052;2023-04-30T03:46:45;103639.97;;;16.36;100.00
56198;BME280;42700;42.524;12.052;2023-04-30T03:49:10;103550.75;;;16.31;100.00
56198;BME280;42700;42.524;12.052;2023-04-30T03:51:36;103552.50;;;16.32;100.00
56198;BME280;42700;42.524;12.052;2023-04-30T03:54:04;103604.44;;;16.31;100.00
56198;BME280;42700;42.524;12.052;2023-04-30T03:56:31;103363.34;;;16.23;100.00
56198;BME280;42700;42.524;12.052;2023-04-30T03:58:56;103755.44;;;16.35;100.00
56198;BME280;42700;42.524;12.052;2023-04-30T04:01:22;103971.59;;;16.44;100.00
56198;BME280;42700;42.524;12.052;2023-04-30T04:03:48;103960.91;;;16.42;100.00
56198;BME280;42700;42.524;12.052;2023-04-30T04:06:13;104125.38;;;16.46;100.00
56198;BME280;42700;42.524;12.052;2023-04-30T04:08:39;104105.72;;;16.45;100.00
56198;BME280;42700;42.524;12.052;2023-04-30T04:11:07;104224.59;;;16.49;100.00
56198;BME280;42700;42.524;12.052;2023-04-30T04:13:33;104176.28;;;16.49;100.00
56198;BME280;42700;42.524;12.052;2023-04-30T04:15:59;104263.81;;;16.53;100.00
56198;BME280;42700;42.524;12.052;2023-04-30T04:18:25;104744.78;;;16.70;100.00
56198;BME280;42700;42.524;12.052;2023-04-30T04:20:50;104660.72;;;16.68;100.00
56198;BME280;42700;42.524;12.052;2023-04-30T04:23:16;104581.16;;;16.64;100.00
56198;BME280;42700;42.524;12.052;2023-04-30T04:25:41;104565.88;;;16.66;100.00
56198;BME280;42700;42.524;12.052;2023-04-30T04:28:08;104826.94;;;16.77;100.00
56198;BME280;42700;42.524;12.052;2023-04-30T04:30:34;104890.44;;;16.82;100.00
56198;BME280;42700;42.524;12.052;2023-04-30T04:33:00;104860.78;;;16.85;100.00
56198;BME280;42700;42.524;12.052;2023-04-30T04:35:26;105076.31;;;16.96;100.00
56198;BME280;42700;42.524;12.052;2023-04-30T04:37:52;105059.22;;;17.00;100.00
56198;BME280;42700;42.524;12.052;2023-04-30T04:40:17;104796.06;;;16.94;100.00
56198;BME280;42700;42.524;12.052;2023-04-30T04:42:43;104636.72;;;16.92;100.00
56198;BME280;42700;42.524;12.052;2023-04-30T04:45:08;104475.63;;;16.89;100.00
56198;BME280;42700;42.524;12.052;2023-04-30T04:47:35;104693.78;;;17.00;100.00
56198;BME280;42700;42.524;12.052;2023-04-30T04:50:01;104453.94;;;16.95;100.00
56198;BME280;42700;42.524;12.052;2023-04-30T04:52:27;104681.06;;;17.05;100.00
56198;BME280;42700;42.524;12.052;2023-04-30T04:54:52;104360.72;;;16.97;100.00
56198;BME280;42700;42.524;12.052;2023-04-30T04:57:18;104555.59;;;17.07;100.00
56198;BME280;42700;42.524;12.052;2023-04-30T04:59:43;104416.88;;;17.05;100.00
56198;BME280;42700;42.524;12.052;2023-04-30T05:02:09;104385.44;;;17.07;100.00
56198;BME280;42700;42.524;12.052;2023-04-30T05:04:34;104650.19;;;17.19;100.00
56198;BME280;42700;42.524;12.052;2023-04-30T05:07:00;104191.91;;;17.08;100.00
56198;BME280;42700;42.524;12.052;2023-04-30T05:09:25;104352.78;;;17.18;100.00
56198;BME280;42700;42.524;12.052;2023-04-30T05:11:51;104615.81;;;17.28;100.00
56198;BME280;42700;42.524;12.052;2023-04-30T05:14:16;104579.75;;;17.34;100.00
56198;BME280;42700;42.524;12.052;2023-04-30T05:16:42;104627.06;;;17.40;100.00
56198;BME280;42700;42.524;12.052;2023-04-30T05:19:07;104685.13;;;17.45;100.00
56198;BME280;42700;42.524;12.052;2023-04-30T05:21:34;104595.47;;;17.46;100.00
56198;BME280;42700;42.524;12.052;2023-04-30T05:24:01;104547.84;;;17.50;100.00
56198;BME280;42700;42.524;12.052;2023-04-30T05:26:27;103999.00;;;17.37;100.00
56198;BME280;42700;42.524;12.052;2023-04-30T05:28:53;104031.06;;;17.42;100.00
56198;BME280;42700;42.524;12.052;2023-04-30T05:31:18;104494.59;;;17.60;100.00
56198;BME280;42700;42.524;12.052;2023-04-30T05:33:44;104287.59;;;17.58;100.00
56198;BME280;42700;42.524;12.052;2023-04-30T05:36:09;104197.91;;;17.59;100.00
56198;BME280;42700;42.524;12.052;2023-04-30T05:38:35;104159.25;;;17.62;100.00
56198;BME280;42700;42.524;12.052;2023-04-30T05:41:00;104269.19;;;17.69;100.00
56198;BME280;42700;42.524;12.052;2023-04-30T05:43:26;104416.69;;;17.80;100.00
56198;BME280;42700;42.524;12.052;2023-04-30T05:45:51;103865.06;;;17.66;100.00
56198;BME280;42700;42.524;12.052;2023-04-30T05:48:17;103912.28;;;17.71;100.00
56198;BME280;42700;42.524;12.052;2023-04-30T05:50:42;103987.38;;;17.76;100.00
56198;BME280;42700;42.524;12.052;2023-04-30T05:53:08;104032.81;;;17.82;100.00
56198;BME280;42700;42.524;12.052;2023-04-30T05:55:33;104596.88;;;18.07;100.00
56198;BME280;42700;42.524;12.052;2023-04-30T05:57:59;104272.31;;;18.03;100.00
56198;BME280;42700;42.524;12.052;2023-04-30T06:00:24;104204.97;;;18.04;100.00
56198;BME280;42700;42.524;12.052;2023-04-30T06:02:50;104521.03;;;18.19;100.00
56198;BME280;42700;42.524;12.052;2023-04-30T06:05:17;104644.38;;;18.32;100.00
56198;BME280;42700;42.524;12.052;2023-04-30T06:07:42;104456.66;;;18.35;100.00
56198;BME280;42700;42.524;12.052;2023-04-30T06:10:08;104878.75;;;18.55;100.00
56198;BME280;42700;42.524;12.052;2023-04-30T06:12:34;104981.53;;;18.68;100.00
56198;BME280;42700;42.524;12.052;2023-04-30T06:14:59;103727.16;;;18.34;100.00
56198;BME280;42700;42.524;12.052;2023-04-30T06:17:25;104047.06;;;18.43;100.00
56198;BME280;42700;42.524;12.052;2023-04-30T06:19:51;104814.16;;;18.77;100.00
56198;BME280;42700;42.524;12.052;2023-04-30T06:22:16;104053.53;;;18.58;100.00
56198;BME280;42700;42.524;12.052;2023-04-30T06:24:42;104792.31;;;18.87;100.00
56198;BME280;42700;42.524;12.052;2023-04-30T06:27:07;103323.25;;;18.51;100.00
56198;BME280;42700;42.524;12.052;2023-04-30T06:29:33;104938.84;;;19.08;100.00
56198;BME280;42700;42.524;12.052;2023-04-30T06:31:58;105241.88;;;19.30;100.00
56198;BME280;42700;42.524;12.052;2023-04-30T06:34:24;104439.06;;;19.12;100.00
56198;BME280;42700;42.524;12.052;2023-04-30T06:36:50;104603.78;;;19.26;100.00
56198;BME280;42700;42.524;12.052;2023-04-30T06:39:16;104913.31;;;19.42;100.00
56198;BME280;42700;42.524;12.052;2023-04-30T06:41:41;103715.88;;;19.10;100.00
56198;BME280;42700;42.524;12.052;2023-04-30T06:44:07;105558.78;;;19.78;100.00
56198;BME280;42700;42.524;12.052;2023-04-30T06:46:33;103954.38;;;19.36;100.00
56198;BME280;42700;42.524;12.052;2023-04-30T06:48:59;104354.63;;;19.49;100.00
56198;BME280;42700;42.524;12.052;2023-04-30T06:51:24;104585.31;;;19.58;100.00
56198;BME280;42700;42.524;12.052;2023-04-30T06:53:50;105686.66;;;20.05;100.00
56198;BME280;42700;42.524;12.052;2023-04-30T06:56:16;104421.84;;;19.73;100.00
56198;BME280;42700;42.524;12.052;2023-04-30T06:58:41;104879.88;;;19.91;100.00
56198;BME280;42700;42.524;12.052;2023-04-30T07:01:07;105235.47;;;20.12;100.00
56198;BME280;42700;42.524;12.052;2023-04-30T07:03:33;105270.25;;;20.21;100.00
56198;BME280;42700;42.524;12.052;2023-04-30T07:05:59;104488.97;;;20.00;100.00
56198;BME280;42700;42.524;12.052;2023-04-30T07:08:24;104750.34;;;20.10;100.00
56198;BME280;42700;42.524;12.052;2023-04-30T07:10:50;106113.78;;;20.62;100.00
56198;BME280;42700;42.524;12.052;2023-04-30T07:13:15;104559.63;;;20.09;100.00
56198;BME280;42700;42.524;12.052;2023-04-30T07:15:41;105916.69;;;20.54;100.00
56198;BME280;42700;42.524;12.052;2023-04-30T07:18:07;106745.94;;;20.93;100.00
56198;BME280;42700;42.524;12.052;2023-04-30T07:20:32;106992.78;;;21.10;100.00
56198;BME280;42700;42.524;12.052;2023-04-30T07:22:58;105497.13;;;20.74;100.00
56198;BME280;42700;42.524;12.052;2023-04-30T07:25:24;106276.63;;;21.12;100.00
56198;BME280;42700;42.524;12.052;2023-04-30T07:27:53;107445.25;;;21.55;100.00
56198;BME280;42700;42.524;12.052;2023-04-30T07:30:19;106270.84;;;21.28;100.00
56198;BME280;42700;42.524;12.052;2023-04-30T07:32:44;106670.13;;;21.44;100.00
56198;BME280;42700;42.524;12.052;2023-04-30T07:35:10;105654.56;;;21.09;100.00
56198;BME280;42700;42.524;12.052;2023-04-30T07:37:35;105182.06;;;20.89;100.00
56198;BME280;42700;42.524;12.052;2023-04-30T07:40:01;106638.72;;;21.35;100.00
56198;BME280;42700;42.524;12.052;2023-04-30T07:42:27;106624.19;;;21.39;100.00
56198;BME280;42700;42.524;12.052;2023-04-30T07:44:53;107804.41;;;21.81;100.00
56198;BME280;42700;42.524;12.052;2023-04-30T07:47:18;108214.53;;;22.05;100.00
56198;BME280;42700;42.524;12.052;2023-04-30T07:49:45;107035.38;;;21.60;100.00
56198;BME280;42700;42.524;12.052;2023-04-30T07:52:10;107780.97;;;21.83;100.00
56198;BME280;42700;42.524;12.052;2023-04-30T07:54:36;108930.34;;;22.20;100.00
56198;BME280;42700;42.524;12.052;2023-04-30T07:57:04;108232.59;;;22.03;100.00
56198;BME280;42700;42.524;12.052;2023-04-30T07:59:30;108421.44;;;22.08;100.00
56198;BME280;42700;42.524;12.052;2023-04-30T08:01:55;106576.16;;;21.51;100.00
56198;BME280;42700;42.524;12.052;2023-04-30T08:04:21;106415.66;;;21.44;100.00
56198;BME280;42700;42.524;12.052;2023-04-30T08:06:46;107321.44;;;21.71;100.00
56198;BME280;42700;42.524;12.052;2023-04-30T08:09:12;106860.34;;;21.57;100.00
56198;BME280;42700;42.524;12.052;2023-04-30T08:11:37;108742.28;;;22.12;100.00
56198;BME280;42700;42.524;12.052;2023-04-30T08:14:02;108377.13;;;22.02;100.00
56198;BME280;42700;42.524;12.052;2023-04-30T08:16:28;108799.25;;;22.17;100.00
56198;BME280;42700;42.524;12.052;2023-04-30T08:18:54;108402.44;;;22.04;100.00
56198;BME280;42700;42.524;12.052;2023-04-30T08:21:20;108381.66;;;22.01;100.00
56198;BME280;42700;42.524;12.052;2023-04-30T08:23:46;107366.56;;;21.69;100.00
56198;BME280;42700;42.524;12.052;2023-04-30T08:26:11;108996.31;;;22.19;100.00
56198;BME280;42700;42.524;12.052;2023-04-30T08:28:37;108280.44;;;22.01;100.00
56198;BME280;42700;42.524;12.052;2023-04-30T08:31:02;109373.47;;;22.28;100.00
56198;BME280;42700;42.524;12.052;2023-04-30T08:33:27;109798.81;;;22.43;100.00
56198;BME280;42700;42.524;12.052;2023-04-30T08:35:53;109217.88;;;22.23;100.00
56198;BME280;42700;42.524;12.052;2023-04-30T08:38:18;109601.47;;;22.35;100.00
56198;BME280;42700;42.524;12.052;2023-04-30T08:40:46;111462.19;;;22.94;100.00
56198;BME280;42700;42.524;12.052;2023-04-30T08:43:13;110086.66;;;22.51;100.00
56198;BME280;42700;42.524;12.052;2023-04-30T08:45:38;111051.41;;;22.80;100.00
56198;BME280;42700;42.524;12.052;2023-04-30T08:48:05;108057.31;;;21.86;100.00
56198;BME280;42700;42.524;12.052;2023-04-30T08:50:34;109838.34;;;22.34;100.00
56198;BME280;42700;42.524;12.052;2023-04-30T08:53:00;110790.94;;;22.62;100.00
56198;BME280;42700;42.524;12.052;2023-04-30T08:55:26;113668.19;;;23.56;100.00
56198;BME280;42700;42.524;12.052;2023-04-30T08:57:52;113688.53;;;23.61;100.00
56198;BME280;42700;42.524;12.052;2023-04-30T09:00:17;114787.31;;;24.02;100.00
56198;BME280;42700;42.524;12.052;2023-04-30T09:02:43;115289.38;;;24.20;100.00
56198;BME280;42700;42.524;12.052;2023-04-30T09:05:11;114623.50;;;24.07;100.00
56198;BME280;42700;42.524;12.052;2023-04-30T09:07:40;110888.84;;;22.90;100.00
56198;BME280;42700;42.524;12.052;2023-04-30T09:10:17;113454.56;;;23.61;100.00
56198;BME280;42700;42.524;12.052;2023-04-30T09:12:43;116192.03;;;24.50;100.00
56198;BME280;42700;42.524;12.052;2023-04-30T09:15:10;117225.41;;;24.92;100.00
56198;BME280;42700;42.524;12.052;2023-04-30T09:17:36;115738.22;;;24.47;100.00
56198;BME280;42700;42.524;12.052;2023-04-30T09:20:11;117620.25;;;25.06;100.00
56198;BME280;42700;42.524;12.052;2023-04-30T09:22:38;115011.72;;;24.31;100.00
56198;BME280;42700;42.524;12.052;2023-04-30T09:25:05;115793.69;;;24.47;100.00
56198;BME280;42700;42.524;12.052;2023-04-30T09:27:30;116851.03;;;24.80;100.00
56198;BME280;42700;42.524;12.052;2023-04-30T09:29:56;119471.63;;;25.70;100.00
56198;BME280;42700;42.524;12.052;2023-04-30T09:32:22;119044.78;;;25.61;100.00
56198;BME280;42700;42.524;12.052;2023-04-30T09:34:47;120147.41;;;26.00;100.00
56198;BME280;42700;42.524;12.052;2023-04-30T09:37:13;120312.13;;;26.08;100.00
56198;BME280;42700;42.524;12.052;2023-04-30T09:39:49;120297.22;;;26.12;100.00
56198;BME280;42700;42.524;12.052;2023-04-30T09:42:15;120878.56;;;26.29;100.00
56198;BME280;42700;42.524;12.052;2023-04-30T09:44:41;120419.72;;;26.24;100.00
56198;BME280;42700;42.524;12.052;2023-04-30T09:47:10;121132.66;;;26.42;100.00
56198;BME280;42700;42.524;12.052;2023-04-30T09:49:38;120932.06;;;26.43;100.00
56198;BME280;42700;42.524;12.052;2023-04-30T09:52:05;120407.81;;;26.29;100.00
56198;BME280;42700;42.524;12.052;2023-04-30T09:54:31;116428.34;;;25.05;100.00
56198;BME280;42700;42.524;12.052;2023-04-30T09:56:57;115986.88;;;24.85;100.00
56198;BME280;42700;42.524;12.052;2023-04-30T09:59:27;117187.06;;;25.27;100.00
56198;BME280;42700;42.524;12.052;2023-04-30T10:01:52;116894.16;;;25.20;100.00
56198;BME280;42700;42.524;12.052;2023-04-30T10:04:19;116446.84;;;25.08;100.00
56198;BME280;42700;42.524;12.052;2023-04-30T10:06:45;116081.59;;;24.95;100.00
56198;BME280;42700;42.524;12.052;2023-04-30T10:09:11;115312.63;;;24.70;100.00
56198;BME280;42700;42.524;12.052;2023-04-30T10:11:40;114776.53;;;24.52;100.00
56198;BME280;42700;42.524;12.052;2023-04-30T10:14:10;114693.53;;;24.48;100.00
56198;BME280;42700;42.524;12.052;2023-04-30T10:16:43;114910.88;;;24.50;100.00
56198;BME280;42700;42.524;12.052;2023-04-30T10:19:19;114386.56;;;24.38;100.00
56198;BME280;42700;42.524;12.052;2023-04-30T10:21:47;113975.69;;;24.22;100.00
56198;BME280;42700;42.524;12.052;2023-04-30T10:24:13;113790.97;;;24.17;100.00
56198;BME280;42700;42.524;12.052;2023-04-30T10:26:40;113406.09;;;24.04;100.00
56198;BME280;42700;42.524;12.052;2023-04-30T10:29:06;113181.47;;;23.98;100.00
56198;BME280;42700;42.524;12.052;2023-04-30T10:31:32;113881.66;;;24.16;100.00
56198;BME280;42700;42.524;12.052;2023-04-30T10:36:46;112368.66;;;23.68;100.00
56198;BME280;42700;42.524;12.052;2023-04-30T10:39:18;113741.22;;;24.07;100.00
56198;BME280;42700;42.524;12.052;2023-04-30T10:41:45;114816.78;;;24.35;100.00
56198;BME280;42700;42.524;12.052;2023-04-30T10:44:14;115577.41;;;24.56;100.00
56198;BME280;42700;42.524;12.052;2023-04-30T10:46:40;114399.66;;;24.22;100.00
56198;BME280;42700;42.524;12.052;2023-04-30T10:49:06;114355.09;;;24.21;100.00
56198;BME280;42700;42.524;12.052;2023-04-30T10:51:46;115109.75;;;24.40;100.00
56198;BME280;42700;42.524;12.052;2023-04-30T10:54:14;114700.53;;;24.25;100.00
56198;BME280;42700;42.524;12.052;2023-04-30T10:56:42;116395.56;;;24.73;100.00
56198;BME280;42700;42.524;12.052;2023-04-30T10:59:09;115686.47;;;24.56;100.00
56198;BME280;42700;42.524;12.052;2023-04-30T11:01:53;116106.91;;;24.69;100.00
56198;BME280;42700;42.524;12.052;2023-04-30T11:04:20;115980.16;;;24.65;100.00
56198;BME280;42700;42.524;12.052;2023-04-30T11:06:53;114993.38;;;24.39;100.00
56198;BME280;42700;42.524;12.052;2023-04-30T11:09:23;115781.44;;;24.60;100.00
56198;BME280;42700;42.524;12.052;2023-04-30T11:12:08;115928.19;;;24.64;100.00
56198;BME280;42700;42.524;12.052;2023-04-30T11:14:35;116165.34;;;24.71;100.00
56198;BME280;42700;42.524;12.052;2023-04-30T11:17:04;116726.31;;;24.86;100.00
56198;BME280;42700;42.524;12.052;2023-04-30T11:19:29;116232.09;;;24.75;100.00
56198;BME280;42700;42.524;12.052;2023-04-30T11:27:26;118836.72;;;25.52;100.00
56198;BME280;42700;42.524;12.052;2023-04-30T11:29:52;118447.38;;;25.43;100.00
56198;BME280;42700;42.524;12.052;2023-04-30T11:32:18;118093.69;;;25.34;100.00
56198;BME280;42700;42.524;12.052;2023-04-30T11:34:44;117318.84;;;25.11;100.00
56198;BME280;42700;42.524;12.052;2023-04-30T11:37:10;116792.13;;;24.97;100.00
56198;BME280;42700;42.524;12.052;2023-04-30T11:39:37;116103.28;;;24.77;100.00
56198;BME280;42700;42.524;12.052;2023-04-30T11:42:04;115446.88;;;24.59;100.00
56198;BME280;42700;42.524;12.052;2023-04-30T11:44:31;114671.53;;;24.36;100.00
56198;BME280;42700;42.524;12.052;2023-04-30T11:46:56;114243.56;;;24.23;100.00
56198;BME280;42700;42.524;12.052;2023-04-30T11:49:22;114394.47;;;24.25;100.00
56198;BME280;42700;42.524;12.052;2023-04-30T11:51:48;113496.44;;;23.99;100.00
56198;BME280;42700;42.524;12.052;2023-04-30T11:54:14;113235.41;;;23.90;100.00
56198;BME280;42700;42.524;12.052;2023-04-30T11:56:44;112724.59;;;23.75;100.00
56198;BME280;42700;42.524;12.052;2023-04-30T11:59:11;112106.84;;;23.56;100.00
56198;BME280;42700;42.524;12.052;2023-04-30T12:01:36;111642.09;;;23.43;100.00
56198;BME280;42700;42.524;12.052;2023-04-30T12:04:02;111681.00;;;23.42;100.00
56198;BME280;42700;42.524;12.052;2023-04-30T12:06:28;111723.66;;;23.43;100.00
56198;BME280;42700;42.524;12.052;2023-04-30T12:08:55;111958.63;;;23.48;100.00
56198;BME280;42700;42.524;12.052;2023-04-30T12:11:22;112151.88;;;23.51;100.00
56198;BME280;42700;42.524;12.052;2023-04-30T12:13:56;113107.38;;;23.76;100.00
56198;BME280;42700;42.524;12.052;2023-04-30T12:16:26;113874.72;;;23.97;100.00
56198;BME280;42700;42.524;12.052;2023-04-30T12:18:52;114436.16;;;24.13;100.00
56198;BME280;42700;42.524;12.052;2023-04-30T12:21:18;114934.19;;;24.28;100.00
56198;BME280;42700;42.524;12.052;2023-04-30T12:23:43;115140.09;;;24.35;100.00
56198;BME280;42700;42.524;12.052;2023-04-30T12:26:09;115092.78;;;24.34;100.00
56198;BME280;42700;42.524;12.052;2023-04-30T12:28:35;115211.06;;;24.36;100.00
56198;BME280;42700;42.524;12.052;2023-04-30T12:31:00;115280.31;;;24.38;100.00
56198;BME280;42700;42.524;12.052;2023-04-30T12:33:29;115032.53;;;24.31;100.00
56198;BME280;42700;42.524;12.052;2023-04-30T12:35:55;114315.25;;;24.11;100.00
56198;BME280;42700;42.524;12.052;2023-04-30T12:38:22;113338.25;;;23.82;100.00
56198;BME280;42700;42.524;12.052;2023-04-30T12:40:47;113015.50;;;23.72;100.00
56198;BME280;42700;42.524;12.052;2023-04-30T12:43:14;112394.00;;;23.52;100.00
56198;BME280;42700;42.524;12.052;2023-04-30T12:45:46;111976.31;;;23.39;100.00
56198;BME280;42700;42.524;12.052;2023-04-30T12:48:13;111604.28;;;23.29;100.00
56198;BME280;42700;42.524;12.052;2023-04-30T12:50:39;111323.06;;;23.21;100.00